Time;durP1;ratioP1;P1;durP2;ratioP2;P2;SDS_P1;SDS_P2;PMS_P1;PMS_P2;Temp;Humidity;BMP_temperature;BMP_pressure;BME280_temperature;BME280_humidity;BME280_pressure;Samples;Min_cycle;Max_cycle;Signal;HPM_P1;HPM_P2
2023/08/13 00:02:24;;;;;;;;;;;;;;;;;;5025534;28;19925;-75
2023/08/13 00:05:11;;;;;;;;;;;;;;;;;;5025340;28;20321;-74
2023/08/13 00:07:57;;;;;;;;;;;;;;;;;;5024432;28;20014;-74
2023/08/13 00:10:43;;;;;;;;;;;;;;;;;;5020109;28;19939;-74
2023/08/13 00:13:30;;;;;;;;;;;;;;;;;;5021563;28;19924;-75
2023/08/13 00:16:16;;;;;;;;;;;;;;;;;;5009251;28;19917;-75
2023/08/13 00:19:03;;;;;;;;;;;;;;;;;;5016187;28;20372;-75
2023/08/13 00:21:49;;;;;;;;;;;;;;;;;;5021042;28;19924;-75
2023/08/13 00:24:36;;;;;;;;;;;;;;;;;;5013442;28;20383;-76
2023/08/13 00:27:22;;;;;;;;;;;;;;;;;;5023802;28;19913;-75
2023/08/13 00:30:09;;;;;;;;;;;;;;;;;;5025234;28;20388;-75
2023/08/13 00:32:56;;;;;;;;;;;;;;;;;;5024517;28;19924;-74
2023/08/13 00:35:42;;;;;;;;;;;;;;;;;;5008421;28;20580;-75
2023/08/13 00:38:29;;;;;;;;;;;;;;;;;;5021661;28;19917;-75
2023/08/13 00:41:15;;;;;;;;;;;;;;;;;;5019564;28;19924;-75
2023/08/13 00:44:02;;;;;;;;;;;;;;;;;;5007874;28;20296;-74
2023/08/13 00:46:48;;;;;;;;;;;;;;;;;;5022157;28;19933;-75
2023/08/13 00:49:35;;;;;;;;;;;;;;;;;;5022005;28;19917;-75
2023/08/13 00:52:21;;;;;;;;;;;;;;;;;;5018204;28;20292;-75
2023/08/13 00:55:08;;;;;;;;;;;;;;;;;;5022113;28;20416;-75
2023/08/13 00:57:54;;;;;;;;;;;;;;;;;;5022067;28;19929;-75
2023/08/13 01:00:41;;;;;;;;;;;;;;;;;;5021999;28;19932;-74
2023/08/13 01:03:27;;;;;;;;;;;;;;;;;;5022306;28;19927;-75
2023/08/13 01:06:14;;;;;;;;;;;;;;;;;;5025034;28;19933;-74
2023/08/13 01:09:00;;;;;;;;;;;;;;;;;;5022898;28;20381;-75
2023/08/13 01:11:47;;;;;;;;;;;;;;;;;;5022686;28;19917;-74
2023/08/13 01:14:34;;;;;;;;;;;;;;;;;;5013603;28;20146;-75
2023/08/13 01:17:20;;;;;;;;;;;;;;;;;;5010597;28;19917;-75
2023/08/13 01:20:07;;;;;;;;;;;;;;;;;;5020077;28;19921;-77
2023/08/13 01:22:54;;;;;;;;;;;;;;;;;;5015826;28;19913;-75
2023/08/13 01:25:40;;;;;;;;;;;;;;;;;;5016991;28;19976;-75
2023/08/13 01:28:27;;;;;;;;;;;;;;;;;;5014375;28;19936;-75
2023/08/13 01:31:13;;;;;;;;;;;;;;;;;;5019106;28;19924;-75
2023/08/13 01:33:59;;;;;;;;;;;;;;;;;;5023965;28;20031;-75
2023/08/13 01:36:46;;;;;;;;;;;;;;;;;;5025688;28;19917;-76
2023/08/13 01:39:33;;;;;;;;;;;;;;;;;;5023739;28;19913;-75
2023/08/13 01:42:19;;;;;;;;;;;;;;;;;;5025700;28;20021;-76
2023/08/13 01:45:06;;;;;;;;;;;;;;;;;;5024086;28;20296;-75
2023/08/13 01:47:52;;;;;;;;;;;;;;;;;;5025507;28;19937;-75
2023/08/13 01:50:39;;;;;;;;;;;;;;;;;;5024148;28;20344;-74
2023/08/13 01:53:26;;;;;;;;;;;;;;;;;;5020262;28;20462;-75
2023/08/13 01:56:12;;;;;;;;;;;;;;;;;;5024484;28;19917;-74
2023/08/13 01:58:59;;;;;;;;;;;;;;;;;;5024396;28;20340;-75
2023/08/13 02:01:45;;;;;;;;;;;;;;;;;;5026917;28;19933;-75
2023/08/13 02:04:31;;;;;;;;;;;;;;;;;;5027131;28;19933;-75
2023/08/13 02:07:18;;;;;;;;;;;;;;;;;;5027960;28;19913;-75
2023/08/13 02:10:04;;;;;;;;;;;;;;;;;;5015727;28;19933;-74
2023/08/13 02:12:51;;;;;;;;;;;;;;;;;;5008508;28;19922;-74
2023/08/13 02:15:37;;;;;;;;;;;;;;;;;;5025841;28;20466;-75
2023/08/13 02:18:24;;;;;;;;;;;;;;;;;;5015881;28;19928;-74
2023/08/13 02:21:10;;;;;;;;;;;;;;;;;;5021332;28;19941;-74
2023/08/13 02:23:57;;;;;;;;;;;;;;;;;;5017733;28;19922;-77
2023/08/13 02:26:43;;;;;;;;;;;;;;;;;;5027222;28;19925;-76
2023/08/13 02:29:30;;;;;;;;;;;;;;;;;;5025446;28;19920;-77
2023/08/13 02:32:16;;;;;;;;;;;;;;;;;;5028140;28;20280;-76
2023/08/13 02:35:03;;;;;;;;;;;;;;;;;;5026200;28;19924;-76
2023/08/13 02:37:49;;;;;;;;;;;;;;;;;;5028205;28;19922;-77
2023/08/13 02:40:36;;;;;;;;;;;;;;;;;;5027660;28;19917;-76
2023/08/13 02:43:22;;;;;;;;;;;;;;;;;;5026896;28;19933;-76
2023/08/13 02:46:09;;;;;;;;;;;;;;;;;;5022952;28;19948;-74
2023/08/13 02:48:55;;;;;;;;;;;;;;;;;;5010121;28;20547;-74
2023/08/13 02:51:42;;;;;;;;;;;;;;;;;;5025402;28;19920;-74
2023/08/13 02:54:28;;;;;;;;;;;;;;;;;;5027252;28;19917;-73
2023/08/13 02:57:14;;;;;;;;;;;;;;;;;;5027183;28;20319;-75
2023/08/13 03:00:02;;;;;;;;;;;;;;;;;;5025870;28;19933;-75
2023/08/13 03:02:48;;;;;;;;;;;;;;;;;;5023321;28;19944;-74
2023/08/13 03:05:35;;;;;;;;;;;;;;;;;;5024239;28;20040;-75
2023/08/13 03:08:21;;;;;;;;;;;;;;;;;;5025799;28;19913;-74
2023/08/13 03:11:07;;;;;;;;;;;;;;;;;;5016757;28;19917;-75
2023/08/13 03:13:54;;;;;;;;;;;;;;;;;;5024032;28;19944;-75
2023/08/13 03:16:40;;;;;;;;;;;;;;;;;;5022592;28;20444;-74
2023/08/13 03:19:27;;;;;;;;;;;;;;;;;;5018335;28;19913;-74
2023/08/13 03:22:13;;;;;;;;;;;;;;;;;;5026235;28;19921;-74
2023/08/13 03:25:00;;;;;;;;;;;;;;;;;;5023391;28;19925;-74
2023/08/13 03:27:46;;;;;;;;;;;;;;;;;;5010288;28;19928;-74
2023/08/13 03:30:33;;;;;;;;;;;;;;;;;;5024237;28;19920;-74
2023/08/13 03:33:19;;;;;;;;;;;;;;;;;;5023400;28;19914;-75
2023/08/13 03:36:06;;;;;;;;;;;;;;;;;;5026590;28;19918;-75
2023/08/13 03:38:52;;;;;;;;;;;;;;;;;;5017749;28;19920;-74
2023/08/13 03:41:39;;;;;;;;;;;;;;;;;;5023420;28;19921;-75
2023/08/13 03:44:25;;;;;;;;;;;;;;;;;;5022233;28;19944;-75
2023/08/13 03:47:11;;;;;;;;;;;;;;;;;;5023974;28;20351;-75
2023/08/13 03:49:58;;;;;;;;;;;;;;;;;;5003697;28;20399;-75
2023/08/13 03:52:44;;;;;;;;;;;;;;;;;;5023418;28;19921;-75
2023/08/13 03:55:31;;;;;;;;;;;;;;;;;;5020375;28;20304;-75
2023/08/13 03:58:17;;;;;;;;;;;;;;;;;;5021673;28;19924;-75
2023/08/13 04:01:04;;;;;;;;;;;;;;;;;;5023649;28;19917;-75
2023/08/13 04:03:50;;;;;;;;;;;;;;;;;;5020259;28;19929;-75
2023/08/13 04:06:38;;;;;;;;;;;;;;;;;;5021821;28;19921;-75
2023/08/13 04:09:24;;;;;;;;;;;;;;;;;;5018680;28;19917;-75
2023/08/13 04:12:11;;;;;;;;;;;;;;;;;;5016279;28;19928;-75
2023/08/13 04:14:57;;;;;;;;;;;;;;;;;;4999238;28;20010;-74
2023/08/13 04:17:44;;;;;;;;;;;;;;;;;;5013316;28;20338;-75
2023/08/13 04:20:30;;;;;;;;;;;;;;;;;;5018087;28;19925;-74
2023/08/13 04:23:16;;;;;;;;;;;;;;;;;;5022494;28;19922;-74
2023/08/13 04:26:03;;;;;;;;;;;;;;;;;;5023570;28;20635;-74
2023/08/13 04:28:49;;;;;;;;;;;;;;;;;;5006069;28;19927;-74
2023/08/13 04:31:36;;;;;;;;;;;;;;;;;;5020950;28;19921;-73
2023/08/13 04:34:22;;;;;;;;;;;;;;;;;;5020396;28;19925;-74
2023/08/13 04:37:09;;;;;;;;;;;;;;;;;;5026937;28;19921;-74
2023/08/13 04:39:55;;;;;;;;;;;;;;;;;;5017040;28;19926;-74
2023/08/13 04:42:42;;;;;;;;;;;;;;;;;;5020281;28;20353;-75
2023/08/13 04:45:28;;;;;;;;;;;;;;;;;;5017402;28;19925;-75
2023/08/13 04:48:15;;;;;;;;;;;;;;;;;;5018696;28;20324;-76
2023/08/13 04:51:01;;;;;;;;;;;;;;;;;;5017516;28;19924;-76
2023/08/13 04:53:48;;;;;;;;;;;;;;;;;;5018978;28;19930;-76
2023/08/13 04:56:34;;;;;;;;;;;;;;;;;;5021434;28;19921;-75
2023/08/13 04:59:21;;;;;;;;;;;;;;;;;;5018103;28;19917;-76
2023/08/13 05:02:07;;;;;;;;;;;;;;;;;;5020473;28;19947;-75
2023/08/13 05:04:54;;;;;;;;;;;;;;;;;;5020038;28;19959;-75
2023/08/13 05:07:40;;;;;;;;;;;;;;;;;;5021650;28;19940;-75
2023/08/13 05:10:27;;;;;;;;;;;;;;;;;;5021690;28;19924;-75
2023/08/13 05:13:13;;;;;;;;;;;;;;;;;;5021946;28;20644;-75
2023/08/13 05:16:00;;;;;;;;;;;;;;;;;;5023009;28;19921;-75
2023/08/13 05:18:46;;;;;;;;;;;;;;;;;;5007912;28;20242;-75
2023/08/13 05:21:33;;;;;;;;;;;;;;;;;;5021371;28;19918;-75
2023/08/13 05:24:19;;;;;;;;;;;;;;;;;;5015305;28;20019;-77
2023/08/13 05:27:06;;;;;;;;;;;;;;;;;;5022936;28;19921;-75
2023/08/13 05:29:52;;;;;;;;;;;;;;;;;;5018948;28;19924;-76
2023/08/13 05:32:39;;;;;;;;;;;;;;;;;;5020780;28;20233;-76
2023/08/13 05:35:25;;;;;;;;;;;;;;;;;;5017922;28;19921;-75
2023/08/13 05:38:12;;;;;;;;;;;;;;;;;;5020001;28;19928;-76
2023/08/13 05:40:58;;;;;;;;;;;;;;;;;;5021358;28;19928;-75
2023/08/13 05:43:45;;;;;;;;;;;;;;;;;;5019918;28;20424;-75
2023/08/13 05:46:32;;;;;;;;;;;;;;;;;;5016270;28;19925;-76
2023/08/13 05:49:18;;;;;;;;;;;;;;;;;;5020035;28;19921;-75
2023/08/13 05:52:05;;;;;;;;;;;;;;;;;;5021981;28;19936;-75
2023/08/13 05:54:51;;;;;;;;;;;;;;;;;;5022472;28;19921;-76
2023/08/13 05:57:38;;;;;;;;;;;;;;;;;;5019803;28;19931;-75
2023/08/13 06:00:24;;;;;;;;;;;;;;;;;;5022694;28;19944;-76
2023/08/13 06:03:11;;;;;;;;;;;;;;;;;;5017692;28;19925;-76
2023/08/13 06:05:57;;;;;;;;;;;;;;;;;;5016567;28;20743;-75
2023/08/13 06:08:43;;;;;;;;;;;;;;;;;;5016717;28;19917;-75
2023/08/13 06:11:30;;;;;;;;;;;;;;;;;;5014584;28;19921;-75
2023/08/13 06:14:16;;;;;;;;;;;;;;;;;;5020217;28;20394;-76
2023/08/13 06:17:03;;;;;;;;;;;;;;;;;;5016492;28;20289;-75
2023/08/13 06:19:49;;;;;;;;;;;;;;;;;;5015675;28;19922;-75
2023/08/13 06:22:36;;;;;;;;;;;;;;;;;;5003350;28;19927;-76
2023/08/13 06:25:22;;;;;;;;;;;;;;;;;;5008635;28;19924;-75
2023/08/13 06:28:09;;;;;;;;;;;;;;;;;;5024721;28;19921;-75
2023/08/13 06:30:55;;;;;;;;;;;;;;;;;;5023326;28;19927;-76
2023/08/13 06:33:42;;;;;;;;;;;;;;;;;;5022848;28;19929;-75
2023/08/13 06:36:28;;;;;;;;;;;;;;;;;;5022960;28;19921;-75
2023/08/13 06:39:15;;;;;;;;;;;;;;;;;;5025665;28;19928;-75
2023/08/13 06:42:01;;;;;;;;;;;;;;;;;;5021828;28;20424;-75
2023/08/13 06:44:48;;;;;;;;;;;;;;;;;;5023064;28;19932;-74
2023/08/13 06:47:35;;;;;;;;;;;;;;;;;;5022424;28;19926;-74
2023/08/13 06:50:21;;;;;;;;;;;;;;;;;;5026194;28;19943;-76
2023/08/13 06:53:08;;;;;;;;;;;;;;;;;;5019477;28;19927;-74
2023/08/13 06:55:54;;;;;;;;;;;;;;;;;;5024636;28;19925;-75
2023/08/13 06:58:40;;;;;;;;;;;;;;;;;;5022686;28;19921;-75
2023/08/13 07:01:28;;;;;;;;;;;;;;;;;;5010700;28;19956;-76
2023/08/13 07:04:15;;;;;;;;;;;;;;;;;;5024316;28;20657;-74
2023/08/13 07:07:01;;;;;;;;;;;;;;;;;;5019769;28;19921;-75
2023/08/13 07:09:48;;;;;;;;;;;;;;;;;;5024197;28;19917;-75
2023/08/13 07:12:34;;;;;;;;;;;;;;;;;;5023071;28;19928;-74
2023/08/13 07:15:21;;;;;;;;;;;;;;;;;;5022327;28;19928;-75
2023/08/13 07:18:07;;;;;;;;;;;;;;;;;;5006315;28;19925;-75
2023/08/13 07:20:54;;;;;;;;;;;;;;;;;;5001727;28;19925;-75
2023/08/13 07:23:40;;;;;;;;;;;;;;;;;;5013432;28;20322;-76
2023/08/13 07:26:27;;;;;;;;;;;;;;;;;;5022921;28;20300;-76
2023/08/13 07:29:13;;;;;;;;;;;;;;;;;;5022135;28;19921;-77
2023/08/13 07:32:00;;;;;;;;;;;;;;;;;;5021356;28;19921;-76
2023/08/13 07:34:46;;;;;;;;;;;;;;;;;;5020819;28;19921;-76
2023/08/13 07:37:33;;;;;;;;;;;;;;;;;;5019910;28;19917;-76
2023/08/13 07:40:19;;;;;;;;;;;;;;;;;;5025877;28;19929;-78
2023/08/13 07:43:06;;;;;;;;;;;;;;;;;;5014729;28;19924;-76
2023/08/13 07:45:53;;;;;;;;;;;;;;;;;;5012042;28;19929;-76
2023/08/13 07:48:39;;;;;;;;;;;;;;;;;;5023095;28;19936;-74
2023/08/13 07:51:26;;;;;;;;;;;;;;;;;;5020749;28;19925;-74
2023/08/13 07:54:12;;;;;;;;;;;;;;;;;;5023902;28;19928;-71
2023/08/13 07:56:59;;;;;;;;;;;;;;;;;;5020855;28;19924;-72
2023/08/13 07:59:45;;;;;;;;;;;;;;;;;;5024868;28;19921;-72
2023/08/13 08:02:32;;;;;;;;;;;;;;;;;;5020396;28;19921;-72
2023/08/13 08:05:18;;;;;;;;;;;;;;;;;;5016345;28;19925;-72
2023/08/13 08:08:05;;;;;;;;;;;;;;;;;;5020044;28;19917;-73
2023/08/13 08:10:51;;;;;;;;;;;;;;;;;;5022050;28;19921;-73
2023/08/13 08:13:38;;;;;;;;;;;;;;;;;;5020278;28;20616;-73
2023/08/13 08:16:24;;;;;;;;;;;;;;;;;;5019727;28;19927;-74
2023/08/13 08:19:11;;;;;;;;;;;;;;;;;;5022444;28;20300;-73
2023/08/13 08:21:58;;;;;;;;;;;;;;;;;;5018917;28;20452;-75
2023/08/13 08:24:44;;;;;;;;;;;;;;;;;;5022021;28;19921;-74
2023/08/13 08:27:31;;;;;;;;;;;;;;;;;;5022844;28;19925;-73
2023/08/13 08:30:17;;;;;;;;;;;;;;;;;;5020992;28;19921;-72
2023/08/13 08:33:04;;;;;;;;;;;;;;;;;;5012042;28;19923;-73
2023/08/13 08:35:50;;;;;;;;;;;;;;;;;;5020072;28;19941;-73
2023/08/13 08:38:37;;;;;;;;;;;;;;;;;;5021803;28;20369;-74
2023/08/13 08:41:23;;;;;;;;;;;;;;;;;;5016325;28;19925;-74
2023/08/13 08:44:10;;;;;;;;;;;;;;;;;;5019459;28;19921;-75
2023/08/13 08:46:56;;;;;;;;;;;;;;;;;;5018985;28;19925;-74
2023/08/13 08:49:43;;;;;;;;;;;;;;;;;;5020585;28;19921;-75
2023/08/13 08:52:29;;;;;;;;;;;;;;;;;;5022122;28;19928;-75
2023/08/13 08:55:16;;;;;;;;;;;;;;;;;;5020625;28;19955;-73
2023/08/13 08:58:02;;;;;;;;;;;;;;;;;;5022930;28;19917;-74
2023/08/13 09:00:49;;;;;;;;;;;;;;;;;;5020418;28;19921;-73
2023/08/13 09:03:35;;;;;;;;;;;;;;;;;;5019265;28;20670;-74
2023/08/13 09:06:22;;;;;;;;;;;;;;;;;;5021608;28;19929;-75
2023/08/13 09:09:08;;;;;;;;;;;;;;;;;;5022883;28;20817;-74
2023/08/13 09:11:55;;;;;;;;;;;;;;;;;;5013404;28;19922;-74
2023/08/13 09:14:41;;;;;;;;;;;;;;;;;;5020324;28;19913;-74
2023/08/13 09:17:28;;;;;;;;;;;;;;;;;;5016487;28;19952;-74
2023/08/13 09:20:14;;;;;;;;;;;;;;;;;;5016701;28;19922;-73
2023/08/13 09:23:01;;;;;;;;;;;;;;;;;;5018738;28;20364;-74
2023/08/13 09:25:47;;;;;;;;;;;;;;;;;;5003921;28;19933;-74
2023/08/13 09:28:34;;;;;;;;;;;;;;;;;;5016420;28;19928;-74
2023/08/13 09:31:20;;;;;;;;;;;;;;;;;;5014776;28;19917;-74
2023/08/13 09:34:07;;;;;;;;;;;;;;;;;;5022191;28;20502;-74
2023/08/13 09:36:54;;;;;;;;;;;;;;;;;;5019795;28;19921;-74
2023/08/13 09:39:40;;;;;;;;;;;;;;;;;;5018455;28;19926;-74
2023/08/13 09:42:26;;;;;;;;;;;;;;;;;;5018018;28;20365;-73
2023/08/13 09:45:13;;;;;;;;;;;;;;;;;;5020781;28;20686;-73
2023/08/13 09:47:59;;;;;;;;;;;;;;;;;;5019298;28;19929;-73
2023/08/13 09:50:46;;;;;;;;;;;;;;;;;;5020269;28;19933;-73
2023/08/13 09:53:32;;;;;;;;;;;;;;;;;;5018553;28;19921;-73
2023/08/13 09:56:19;;;;;;;;;;;;;;;;;;5026839;28;19917;-73
2023/08/13 09:59:06;;;;;;;;;;;;;;;;;;5020910;28;19931;-73
2023/08/13 10:01:52;;;;;;;;;;;;;;;;;;5021281;28;19921;-73
2023/08/13 10:04:38;;;;;;;;;;;;;;;;;;5026778;28;19929;-73
2023/08/13 10:07:25;;;;;;;;;;;;;;;;;;5012068;28;19925;-74
2023/08/13 10:10:12;;;;;;;;;;;;;;;;;;5021342;28;20416;-75
2023/08/13 10:12:58;;;;;;;;;;;;;;;;;;5022274;28;19929;-75
2023/08/13 10:15:45;;;;;;;;;;;;;;;;;;5023322;28;19935;-75
2023/08/13 10:18:33;;;;;;;;;;;;;;;;;;5020815;28;19918;-75
2023/08/13 10:21:19;;;;;;;;;;;;;;;;;;5018997;28;20011;-75
2023/08/13 10:24:06;;;;;;;;;;;;;;;;;;5025714;28;19925;-75
2023/08/13 10:26:52;;;;;;;;;;;;;;;;;;5024204;28;19936;-75
2023/08/13 10:29:38;;;;;;;;;;;;;;;;;;5021894;28;19921;-75
2023/08/13 10:32:25;;;;;;;;;;;;;;;;;;5022894;28;19925;-76
2023/08/13 10:35:11;;;;;;;;;;;;;;;;;;5021359;28;20333;-76
2023/08/13 10:37:59;;;;;;;;;;;;;;;;;;5021743;28;19917;-76
2023/08/13 10:40:45;;;;;;;;;;;;;;;;;;5020019;28;19936;-74
2023/08/13 10:43:32;;;;;;;;;;;;;;;;;;5021124;28;20368;-75
2023/08/13 10:46:18;;;;;;;;;;;;;;;;;;5020112;28;19936;-74
2023/08/13 10:49:05;;;;;;;;;;;;;;;;;;5024792;28;19928;-75
2023/08/13 10:51:51;;;;;;;;;;;;;;;;;;5023724;28;19929;-76
2023/08/13 10:54:37;;;;;;;;;;;;;;;;;;5022011;28;19921;-76
2023/08/13 10:57:24;;;;;;;;;;;;;;;;;;5024030;28;20607;-75
2023/08/13 11:00:10;;;;;;;;;;;;;;;;;;5025752;28;19924;-75
2023/08/13 11:02:57;;;;;;;;;;;;;;;;;;5020422;28;19921;-76
2023/08/13 11:05:43;;;;;;;;;;;;;;;;;;5022315;28;19935;-75
2023/08/13 11:08:30;;;;;;;;;;;;;;;;;;5020633;28;20652;-75
2023/08/13 11:11:17;;;;;;;;;;;;;;;;;;5021940;28;19920;-75
2023/08/13 11:14:03;;;;;;;;;;;;;;;;;;5011878;28;19931;-74
2023/08/13 11:16:50;;;;;;;;;;;;;;;;;;5020419;28;19929;-75
2023/08/13 11:19:36;;;;;;;;;;;;;;;;;;5022070;28;20308;-75
2023/08/13 11:22:23;;;;;;;;;;;;;;;;;;5019806;28;19929;-76
2023/08/13 11:25:10;;;;;;;;;;;;;;;;;;5024382;28;19925;-75
2023/08/13 11:27:56;;;;;;;;;;;;;;;;;;5024683;28;20269;-76
2023/08/13 11:30:43;;;;;;;;;;;;;;;;;;5018668;28;19922;-75
2023/08/13 11:33:29;;;;;;;;;;;;;;;;;;5023690;28;20295;-75
2023/08/13 11:36:16;;;;;;;;;;;;;;;;;;5024712;28;19928;-75
2023/08/13 11:39:03;;;;;;;;;;;;;;;;;;5010336;28;19913;-75
2023/08/13 11:41:49;;;;;;;;;;;;;;;;;;5017201;28;19921;-74
2023/08/13 11:44:36;;;;;;;;;;;;;;;;;;5010628;28;19917;-75
2023/08/13 11:47:22;;;;;;;;;;;;;;;;;;5021908;28;19936;-74
2023/08/13 11:50:09;;;;;;;;;;;;;;;;;;5022821;28;19921;-76
2023/08/13 11:52:55;;;;;;;;;;;;;;;;;;5018828;28;19921;-74
2023/08/13 11:55:42;;;;;;;;;;;;;;;;;;5021356;28;19928;-74
2023/08/13 11:58:28;;;;;;;;;;;;;;;;;;5020507;28;19921;-73
2023/08/13 12:01:15;;;;;;;;;;;;;;;;;;5022415;28;19928;-74
2023/08/13 12:04:02;;;;;;;;;;;;;;;;;;5019419;28;19921;-74
2023/08/13 12:06:48;;;;;;;;;;;;;;;;;;5021808;28;19925;-74
2023/08/13 12:09:35;;;;;;;;;;;;;;;;;;5022250;28;19928;-74
2023/08/13 12:12:21;;;;;;;;;;;;;;;;;;5020292;28;19921;-74
2023/08/13 12:15:08;;;;;;;;;;;;;;;;;;5022689;28;19924;-74
2023/08/13 12:17:55;;;;;;;;;;;;;;;;;;5021289;28;20019;-74
2023/08/13 12:20:41;;;;;;;;;;;;;;;;;;5021539;28;19917;-74
2023/08/13 12:23:28;;;;;;;;;;;;;;;;;;5019063;28;20558;-73
2023/08/13 12:26:14;;;;;;;;;;;;;;;;;;5019664;28;19932;-74
2023/08/13 12:29:02;;;;;;;;;;;;;;;;;;5022176;28;19921;-74
2023/08/13 12:31:49;;;;;;;;;;;;;;;;;;5023172;28;20383;-74
2023/08/13 12:34:35;;;;;;;;;;;;;;;;;;5020197;28;20379;-75
2023/08/13 12:37:21;;;;;;;;;;;;;;;;;;4999404;28;20444;-74
2023/08/13 12:40:11;;;;;;;;;;;;;;;;;;5022517;28;19928;-75
2023/08/13 12:42:58;;;;;;;;;;;;;;;;;;5021770;28;19928;-74
2023/08/13 12:45:44;;;;;;;;;;;;;;;;;;5013828;28;19936;-74
2023/08/13 12:48:32;;;;;;;;;;;;;;;;;;5022088;28;19929;-74
2023/08/13 12:51:18;;;;;;;;;;;;;;;;;;5017856;28;19928;-73
2023/08/13 12:54:05;;;;;;;;;;;;;;;;;;5023785;28;19928;-73
2023/08/13 12:56:51;;;;;;;;;;;;;;;;;;5014917;28;20027;-73
2023/08/13 12:59:38;;;;;;;;;;;;;;;;;;5019453;28;19921;-74
2023/08/13 13:02:24;;;;;;;;;;;;;;;;;;5016388;28;19921;-77
2023/08/13 13:05:11;;;;;;;;;;;;;;;;;;5012942;28;19929;-77
2023/08/13 13:07:57;;;;;;;;;;;;;;;;;;5020583;28;20485;-76
2023/08/13 13:10:43;;;;;;;;;;;;;;;;;;5018269;28;19921;-76
2023/08/13 13:13:30;;;;;;;;;;;;;;;;;;5015625;28;20573;-75
2023/08/13 13:16:16;;;;;;;;;;;;;;;;;;5019452;28;19925;-74
2023/08/13 13:19:03;;;;;;;;;;;;;;;;;;5017307;28;20288;-74
2023/08/13 13:21:50;;;;;;;;;;;;;;;;;;5020228;28;19920;-78
2023/08/13 13:24:36;;;;;;;;;;;;;;;;;;5013515;28;19925;-76
2023/08/13 13:27:22;;;;;;;;;;;;;;;;;;5017877;28;19925;-77
2023/08/13 13:30:09;;;;;;;;;;;;;;;;;;4998038;28;19917;-77
2023/08/13 13:32:55;;;;;;;;;;;;;;;;;;5013362;28;19943;-76
2023/08/13 13:35:42;;;;;;;;;;;;;;;;;;5013924;28;20298;-76
2023/08/13 13:38:28;;;;;;;;;;;;;;;;;;5015895;28;19928;-76
2023/08/13 13:41:15;;;;;;;;;;;;;;;;;;5005390;28;19917;-76
2023/08/13 13:44:01;;;;;;;;;;;;;;;;;;5011878;28;19921;-76
2023/08/13 13:46:48;;;;;;;;;;;;;;;;;;5017282;28;19925;-77
2023/08/13 13:49:34;;;;;;;;;;;;;;;;;;5012870;28;19918;-77
2023/08/13 13:52:21;;;;;;;;;;;;;;;;;;5005600;28;20008;-78
2023/08/13 13:55:07;;;;;;;;;;;;;;;;;;5021461;28;19925;-75
2023/08/13 13:57:54;;;;;;;;;;;;;;;;;;5020143;28;19918;-76
2023/08/13 14:00:41;;;;;;;;;;;;;;;;;;5012906;28;19924;-77
2023/08/13 14:03:27;;;;;;;;;;;;;;;;;;5013090;28;19932;-76
2023/08/13 14:06:14;;;;;;;;;;;;;;;;;;5018324;28;20357;-76
2023/08/13 14:09:00;;;;;;;;;;;;;;;;;;5017848;28;19921;-76
2023/08/13 14:11:46;;;;;;;;;;;;;;;;;;5015246;28;19925;-75
2023/08/13 14:14:33;;;;;;;;;;;;;;;;;;5017949;28;20595;-75
2023/08/13 14:17:19;;;;;;;;;;;;;;;;;;5019566;28;19921;-75
2023/08/13 14:20:08;;;;;;;;;;;;;;;;;;5015432;28;20288;-75
2023/08/13 14:22:55;;;;;;;;;;;;;;;;;;5017058;28;19929;-76
2023/08/13 14:25:41;;;;;;;;;;;;;;;;;;5012274;28;19929;-78
2023/08/13 14:28:28;;;;;;;;;;;;;;;;;;5017901;28;19936;-74
2023/08/13 14:31:14;;;;;;;;;;;;;;;;;;5016694;28;19917;-74
2023/08/13 14:34:00;;;;;;;;;;;;;;;;;;5017242;28;19932;-76
2023/08/13 14:36:47;;;;;;;;;;;;;;;;;;5005727;28;20404;-75
2023/08/13 14:39:33;;;;;;;;;;;;;;;;;;5033190;28;19923;-75
2023/08/13 14:42:20;;;;;;;;;;;;;;;;;;5039119;28;19917;-76
2023/08/13 14:45:07;;;;;;;;;;;;;;;;;;5028682;28;19940;-76
2023/08/13 14:47:53;;;;;;;;;;;;;;;;;;5038769;28;19929;-77
2023/08/13 14:50:40;;;;;;;;;;;;;;;;;;5037537;28;20300;-76
2023/08/13 14:53:26;;;;;;;;;;;;;;;;;;5023372;28;19935;-76
2023/08/13 14:56:13;;;;;;;;;;;;;;;;;;5043767;28;19921;-75
2023/08/13 14:58:59;;;;;;;;;;;;;;;;;;5028936;28;19921;-74
2023/08/13 15:01:48;;;;;;;;;;;;;;;;;;5032524;28;20372;-74
2023/08/13 15:04:35;;;;;;;;;;;;;;;;;;5034150;28;20131;-75
2023/08/13 15:07:22;;;;;;;;;;;;;;;;;;5027030;28;19940;-77
2023/08/13 15:10:08;;;;;;;;;;;;;;;;;;5023564;28;19928;-75
2023/08/13 15:12:54;;;;;;;;;;;;;;;;;;5028746;28;19932;-75
2023/08/13 15:15:41;;;;;;;;;;;;;;;;;;5008166;28;20462;-75
2023/08/13 15:18:27;;;;;;;;;;;;;;;;;;5019325;28;19921;-75
2023/08/13 15:21:14;;;;;;;;;;;;;;;;;;5016985;28;19921;-77
2023/08/13 15:24:00;;;;;;;;;;;;;;;;;;5004449;28;20292;-78
2023/08/13 15:26:47;;;;;;;;;;;;;;;;;;5021128;28;19929;-78
2023/08/13 15:29:33;;;;;;;;;;;;;;;;;;5018897;28;19960;-77
2023/08/13 15:32:21;;;;;;;;;;;;;;;;;;5018982;28;19921;-76
2023/08/13 15:35:11;;;;;;;;;;;;;;;;;;5022607;28;19932;-76
2023/08/13 15:37:57;;;;;;;;;;;;;;;;;;5009292;28;19921;-76
2023/08/13 15:40:44;;;;;;;;;;;;;;;;;;5016783;28;20395;-75
2023/08/13 15:43:30;;;;;;;;;;;;;;;;;;5021360;28;20451;-75
2023/08/13 15:46:17;;;;;;;;;;;;;;;;;;5020400;28;19975;-75
2023/08/13 15:49:03;;;;;;;;;;;;;;;;;;5018079;28;19925;-74
2023/08/13 15:51:50;;;;;;;;;;;;;;;;;;5001054;28;20667;-74
2023/08/13 15:54:36;;;;;;;;;;;;;;;;;;5012938;28;19928;-75
2023/08/13 15:57:23;;;;;;;;;;;;;;;;;;5018315;28;19917;-76
2023/08/13 16:00:11;;;;;;;;;;;;;;;;;;5021369;28;19928;-77
2023/08/13 16:02:57;;;;;;;;;;;;;;;;;;5003165;28;19921;-76
2023/08/13 16:05:44;;;;;;;;;;;;;;;;;;5011842;28;22075;-75
2023/08/13 16:08:30;;;;;;;;;;;;;;;;;;5015826;28;19921;-77
2023/08/13 16:11:17;;;;;;;;;;;;;;;;;;5011663;28;19917;-76
2023/08/13 16:14:03;;;;;;;;;;;;;;;;;;5019465;28;19933;-75
2023/08/13 16:16:50;;;;;;;;;;;;;;;;;;5023664;28;19917;-76
2023/08/13 16:19:37;;;;;;;;;;;;;;;;;;5017116;28;19917;-76
2023/08/13 16:22:24;;;;;;;;;;;;;;;;;;5022721;28;19928;-76
2023/08/13 16:25:11;;;;;;;;;;;;;;;;;;5020332;28;19944;-76
2023/08/13 16:27:57;;;;;;;;;;;;;;;;;;5003736;28;19921;-76
2023/08/13 16:30:44;;;;;;;;;;;;;;;;;;5021473;28;19921;-77
2023/08/13 16:33:30;;;;;;;;;;;;;;;;;;5023131;28;19921;-76
2023/08/13 16:36:17;;;;;;;;;;;;;;;;;;5005316;28;19917;-76
2023/08/13 16:39:03;;;;;;;;;;;;;;;;;;5014837;28;20008;-75
2023/08/13 16:41:50;;;;;;;;;;;;;;;;;;5018663;28;20011;-75
2023/08/13 16:44:36;;;;;;;;;;;;;;;;;;5014080;28;20289;-77
2023/08/13 16:47:23;;;;;;;;;;;;;;;;;;5022476;28;19925;-77
2023/08/13 16:50:09;;;;;;;;;;;;;;;;;;5021950;28;19921;-75
2023/08/13 16:52:56;;;;;;;;;;;;;;;;;;5022124;28;19945;-76
2023/08/13 16:55:43;;;;;;;;;;;;;;;;;;5018144;28;19989;-76
2023/08/13 16:58:30;;;;;;;;;;;;;;;;;;5020303;28;20357;-75
2023/08/13 17:01:16;;;;;;;;;;;;;;;;;;5018852;28;19917;-75
2023/08/13 17:04:03;;;;;;;;;;;;;;;;;;5015255;28;19921;-75
2023/08/13 17:06:49;;;;;;;;;;;;;;;;;;5018027;28;19925;-74
2023/08/13 17:09:36;;;;;;;;;;;;;;;;;;5018096;28;19932;-75
2023/08/13 17:12:22;;;;;;;;;;;;;;;;;;5027979;28;19927;-76
2023/08/13 17:15:09;;;;;;;;;;;;;;;;;;5021378;28;19927;-76
2023/08/13 17:17:55;;;;;;;;;;;;;;;;;;5007672;28;20404;-75
2023/08/13 17:20:42;;;;;;;;;;;;;;;;;;5021657;28;21420;-75
2023/08/13 17:23:28;;;;;;;;;;;;;;;;;;5013569;28;20347;-76
2023/08/13 17:26:15;;;;;;;;;;;;;;;;;;5022031;28;19921;-76
2023/08/13 17:29:03;;;;;;;;;;;;;;;;;;5020356;28;19921;-76
2023/08/13 17:31:49;;;;;;;;;;;;;;;;;;5005246;28;19984;-76
2023/08/13 17:34:36;;;;;;;;;;;;;;;;;;5005921;28;19917;-77
2023/08/13 17:37:22;;;;;;;;;;;;;;;;;;5015651;28;19922;-78
2023/08/13 17:40:09;;;;;;;;;;;;;;;;;;5014494;28;19927;-76
2023/08/13 17:42:55;;;;;;;;;;;;;;;;;;5009540;28;19926;-76
2023/08/13 17:45:42;;;;;;;;;;;;;;;;;;5017335;28;20595;-75
2023/08/13 17:48:29;;;;;;;;;;;;;;;;;;5005969;28;19935;-76
2023/08/13 17:51:16;;;;;;;;;;;;;;;;;;5019777;28;19921;-75
2023/08/13 17:54:03;;;;;;;;;;;;;;;;;;5015923;28;19920;-75
2023/08/13 17:56:50;;;;;;;;;;;;;;;;;;5008966;28;19923;-75
2023/08/13 17:59:36;;;;;;;;;;;;;;;;;;5019919;28;20000;-75
2023/08/13 18:02:24;;;;;;;;;;;;;;;;;;5015926;28;20249;-76
2023/08/13 18:05:10;;;;;;;;;;;;;;;;;;5017620;28;19928;-74
2023/08/13 18:07:56;;;;;;;;;;;;;;;;;;5016827;28;19948;-76
2023/08/13 18:10:43;;;;;;;;;;;;;;;;;;5020496;28;20016;-74
2023/08/13 18:13:29;;;;;;;;;;;;;;;;;;5010060;28;19913;-74
2023/08/13 18:16:16;;;;;;;;;;;;;;;;;;5006328;28;20412;-74
2023/08/13 18:19:02;;;;;;;;;;;;;;;;;;5020033;28;19917;-74
2023/08/13 18:21:49;;;;;;;;;;;;;;;;;;5019156;28;20246;-75
2023/08/13 18:24:35;;;;;;;;;;;;;;;;;;5021001;28;19933;-75
2023/08/13 18:27:22;;;;;;;;;;;;;;;;;;5014800;28;19921;-75
2023/08/13 18:30:08;;;;;;;;;;;;;;;;;;4994272;28;19925;-75
2023/08/13 18:32:55;;;;;;;;;;;;;;;;;;5014323;28;20522;-75
2023/08/13 18:35:41;;;;;;;;;;;;;;;;;;5016178;28;19925;-75
2023/08/13 18:38:28;;;;;;;;;;;;;;;;;;5021993;28;20301;-75
2023/08/13 18:41:14;;;;;;;;;;;;;;;;;;5019108;28;19921;-75
2023/08/13 18:44:01;;;;;;;;;;;;;;;;;;5016732;28;19939;-74
2023/08/13 18:46:47;;;;;;;;;;;;;;;;;;5019270;28;19929;-74
2023/08/13 18:49:34;;;;;;;;;;;;;;;;;;5021542;28;19923;-75
2023/08/13 18:52:20;;;;;;;;;;;;;;;;;;5023466;28;20365;-74
2023/08/13 18:55:06;;;;;;;;;;;;;;;;;;5015491;28;19929;-75
2023/08/13 18:57:53;;;;;;;;;;;;;;;;;;5011642;28;20568;-74